KPOC/POC METAR and TAF weather

Enter ICAO airport designator
Station Type Date Time Source
KPOC METAR 2021/05/12 01:47 UTC NOAA

KPOC 120147Z 25010KT 10SM CLR 21/13 A2990


Station Type Date Time Source
KPOC Decoded METAR 2021/05/12 01:47 UTC NOAA

La Verne / Brackett, CA, United States (KPOC) 34-06N 117-47W
May 11, 2021 - 09:47 PM EDT / 2021.05.12 0147 UTC
Wind: from the WSW (250 degrees) at 12 MPH (10 KT):0
Visibility: 10 mile(s):0
Sky conditions: clear
Temperature: 69 F (21 C)
Dew Point: 55 F (13 C)
Relative Humidity: 60%
Pressure (altimeter): 29.9 in. Hg (1012 hPa)
ob: KPOC 120147Z 25010KT 10SM CLR 21/13 A2990
cycle: 2

Station Type Date Time Source
KPOC TAF UTC NOAA

Error!

Example: see airport list